sensor_id;sensor_type;location;lat;lon;timestamp;pressure;altitude;pressure_sealevel;temperature;humidity
63493;BME280;49638;47.526;10.028;2022-11-18T00:01:22;90033.91;;;6.11;96.50
63493;BME280;49638;47.526;10.028;2022-11-18T00:04:22;90032.28;;;6.10;96.90
63493;BME280;49638;47.526;10.028;2022-11-18T00:07:23;90035.19;;;6.14;97.01
63493;BME280;49638;47.526;10.028;2022-11-18T00:10:23;90057.00;;;6.25;97.12
63493;BME280;49638;47.526;10.028;2022-11-18T00:13:23;90053.84;;;6.28;96.98
63493;BME280;49638;47.526;10.028;2022-11-18T00:16:42;90057.03;;;6.30;97.15
63493;BME280;49638;47.526;10.028;2022-11-18T00:19:42;90062.28;;;6.30;97.16
63493;BME280;49638;47.526;10.028;2022-11-18T00:22:44;90039.69;;;6.19;97.13
63493;BME280;49638;47.526;10.028;2022-11-18T00:25:45;90044.41;;;6.27;97.13
63493;BME280;49638;47.526;10.028;2022-11-18T00:28:45;90066.75;;;6.34;97.11
63493;BME280;49638;47.526;10.028;2022-11-18T00:31:46;90072.78;;;6.35;97.12
63493;BME280;49638;47.526;10.028;2022-11-18T00:34:46;90054.63;;;6.23;97.26
63493;BME280;49638;47.526;10.028;2022-11-18T00:37:46;90060.69;;;6.29;97.19
63493;BME280;49638;47.526;10.028;2022-11-18T00:40:47;90053.63;;;6.29;97.41
63493;BME280;49638;47.526;10.028;2022-11-18T00:43:47;90050.22;;;6.29;97.32
63493;BME280;49638;47.526;10.028;2022-11-18T00:46:47;90042.84;;;6.31;97.54
63493;BME280;49638;47.526;10.028;2022-11-18T00:49:47;90029.72;;;6.26;97.32
63493;BME280;49638;47.526;10.028;2022-11-18T00:52:48;90035.53;;;6.33;97.53
63493;BME280;49638;47.526;10.028;2022-11-18T00:55:48;90038.38;;;6.31;97.50
63493;BME280;49638;47.526;10.028;2022-11-18T00:58:49;90021.84;;;6.21;97.60
63493;BME280;49638;47.526;10.028;2022-11-18T01:01:49;90034.16;;;6.20;97.52
63493;BME280;49638;47.526;10.028;2022-11-18T01:04:50;90025.22;;;6.11;97.89
63493;BME280;49638;47.526;10.028;2022-11-18T01:07:50;90035.47;;;6.12;97.97
63493;BME280;49638;47.526;10.028;2022-11-18T01:10:50;90019.19;;;6.05;98.23
63493;BME280;49638;47.526;10.028;2022-11-18T01:13:52;90029.69;;;6.10;98.42
63493;BME280;49638;47.526;10.028;2022-11-18T01:16:54;90022.06;;;6.09;98.50
63493;BME280;49638;47.526;10.028;2022-11-18T01:19:54;90020.75;;;6.06;98.52
63493;BME280;49638;47.526;10.028;2022-11-18T01:22:54;90015.22;;;6.03;98.47
63493;BME280;49638;47.526;10.028;2022-11-18T01:25:55;90024.44;;;6.10;98.51
63493;BME280;49638;47.526;10.028;2022-11-18T01:28:55;90013.94;;;6.10;98.19
63493;BME280;49638;47.526;10.028;2022-11-18T01:31:58;90024.97;;;6.12;98.19
63493;BME280;49638;47.526;10.028;2022-11-18T01:34:59;90034.44;;;6.19;98.19
63493;BME280;49638;47.526;10.028;2022-11-18T01:37:59;90026.31;;;6.20;98.53
63493;BME280;49638;47.526;10.028;2022-11-18T01:40:59;90044.94;;;6.24;98.21
63493;BME280;49638;47.526;10.028;2022-11-18T01:44:03;90040.47;;;6.19;98.39
63493;BME280;49638;47.526;10.028;2022-11-18T01:47:03;90044.41;;;6.27;98.53
63493;BME280;49638;47.526;10.028;2022-11-18T01:50:04;90048.63;;;6.28;98.07
63493;BME280;49638;47.526;10.028;2022-11-18T01:53:09;90055.47;;;6.29;98.29
63493;BME280;49638;47.526;10.028;2022-11-18T01:56:15;90062.28;;;6.30;98.18
63493;BME280;49638;47.526;10.028;2022-11-18T01:59:18;90053.84;;;6.23;98.17
63493;BME280;49638;47.526;10.028;2022-11-18T02:02:20;90062.78;;;6.27;98.76
63493;BME280;49638;47.526;10.028;2022-11-18T02:05:22;90059.63;;;6.20;98.53
63493;BME280;49638;47.526;10.028;2022-11-18T02:08:24;90072.22;;;6.28;98.40
63493;BME280;49638;47.526;10.028;2022-11-18T02:11:24;90075.13;;;6.26;98.51
63493;BME280;49638;47.526;10.028;2022-11-18T02:14:45;90089.28;;;6.30;98.01
63493;BME280;49638;47.526;10.028;2022-11-18T02:18:03;90085.09;;;6.29;99.47
63493;BME280;49638;47.526;10.028;2022-11-18T02:25:16;90101.09;;;6.28;98.26
63493;BME280;49638;47.526;10.028;2022-11-18T02:28:01;90092.66;;;6.15;98.70
63493;BME280;49638;47.526;10.028;2022-11-18T02:31:26;90111.25;;;6.14;98.86
63493;BME280;49638;47.526;10.028;2022-11-18T02:35:32;90120.69;;;6.10;98.68
63493;BME280;49638;47.526;10.028;2022-11-18T02:38:17;90136.13;;;6.06;98.23
63493;BME280;49638;47.526;10.028;2022-11-18T02:41:24;90138.22;;;5.99;98.31
63493;BME280;49638;47.526;10.028;2022-11-18T02:44:28;90155.28;;;6.02;97.87
63493;BME280;49638;47.526;10.028;2022-11-18T02:47:30;90160.53;;;6.02;97.53
63493;BME280;49638;47.526;10.028;2022-11-18T02:50:32;90162.81;;;5.93;97.43
63493;BME280;49638;47.526;10.028;2022-11-18T02:53:35;90175.91;;;5.93;97.35
63493;BME280;49638;47.526;10.028;2022-11-18T02:56:37;90191.53;;;5.78;96.13
63493;BME280;49638;47.526;10.028;2022-11-18T02:59:38;90197.00;;;5.71;95.94
63493;BME280;49638;47.526;10.028;2022-11-18T03:02:40;90197.94;;;5.60;96.21
63493;BME280;49638;47.526;10.028;2022-11-18T03:05:46;90173.41;;;5.39;94.37
63493;BME280;49638;47.526;10.028;2022-11-18T03:12:41;90162.91;;;5.34;95.21
63493;BME280;49638;47.526;10.028;2022-11-18T03:15:54;90164.63;;;5.23;95.47
63493;BME280;49638;47.526;10.028;2022-11-18T03:19:22;90184.16;;;5.37;96.60
63493;BME280;49638;47.526;10.028;2022-11-18T03:22:42;90178.13;;;5.37;94.73
63493;BME280;49638;47.526;10.028;2022-11-18T03:28:51;90170.56;;;5.40;94.71
63493;BME280;49638;47.526;10.028;2022-11-18T03:32:09;90173.94;;;5.41;94.23
63493;BME280;49638;47.526;10.028;2022-11-18T03:35:16;90167.66;;;5.42;95.43
63493;BME280;49638;47.526;10.028;2022-11-18T03:38:22;90164.00;;;5.43;95.32
63493;BME280;49638;47.526;10.028;2022-11-18T03:41:27;90162.72;;;5.45;94.49
63493;BME280;49638;47.526;10.028;2022-11-18T03:44:33;90166.66;;;5.48;95.21
63493;BME280;49638;47.526;10.028;2022-11-18T03:47:40;90158.53;;;5.44;95.13
63493;BME280;49638;47.526;10.028;2022-11-18T03:50:54;90158.25;;;5.46;95.27
63493;BME280;49638;47.526;10.028;2022-11-18T03:54:02;90165.38;;;5.51;94.61
63493;BME280;49638;47.526;10.028;2022-11-18T03:57:10;90165.41;;;5.56;94.36
63493;BME280;49638;47.526;10.028;2022-11-18T04:00:14;90170.41;;;5.57;94.76
63493;BME280;49638;47.526;10.028;2022-11-18T04:03:15;90179.59;;;5.60;93.62
63493;BME280;49638;47.526;10.028;2022-11-18T04:06:36;90174.63;;;5.63;94.35
63493;BME280;49638;47.526;10.028;2022-11-18T04:09:45;90168.88;;;5.66;94.38
63493;BME280;49638;47.526;10.028;2022-11-18T04:13:05;90180.16;;;5.67;92.76
63493;BME280;49638;47.526;10.028;2022-11-18T04:16:06;90184.16;;;5.75;93.84
63493;BME280;49638;47.526;10.028;2022-11-18T04:19:08;90179.72;;;5.75;93.68
63493;BME280;49638;47.526;10.028;2022-11-18T04:22:09;90203.09;;;5.82;93.60
63493;BME280;49638;47.526;10.028;2022-11-18T04:25:10;90182.63;;;5.79;93.60
63493;BME280;49638;47.526;10.028;2022-11-18T04:28:10;90175.25;;;5.76;94.00
63493;BME280;49638;47.526;10.028;2022-11-18T04:31:11;90198.34;;;5.79;93.78
63493;BME280;49638;47.526;10.028;2022-11-18T04:34:11;90196.81;;;5.83;93.12
63493;BME280;49638;47.526;10.028;2022-11-18T04:37:11;90208.34;;;5.82;93.40
63493;BME280;49638;47.526;10.028;2022-11-18T04:40:12;90199.13;;;5.74;93.09
63493;BME280;49638;47.526;10.028;2022-11-18T04:43:12;90210.03;;;5.66;94.13
63493;BME280;49638;47.526;10.028;2022-11-18T04:46:12;90213.50;;;5.72;94.19
63493;BME280;49638;47.526;10.028;2022-11-18T04:49:13;90210.34;;;5.69;94.21
63493;BME280;49638;47.526;10.028;2022-11-18T04:52:14;90214.28;;;5.72;93.96
63493;BME280;49638;47.526;10.028;2022-11-18T04:55:14;90209.53;;;5.64;93.44
63493;BME280;49638;47.526;10.028;2022-11-18T04:58:14;90211.03;;;5.60;94.48
63493;BME280;49638;47.526;10.028;2022-11-18T05:01:15;90197.91;;;5.55;94.28
63493;BME280;49638;47.526;10.028;2022-11-18T05:04:17;90195.81;;;5.57;94.37
63493;BME280;49638;47.526;10.028;2022-11-18T05:07:18;90201.34;;;5.60;94.65
63493;BME280;49638;47.526;10.028;2022-11-18T05:10:18;90200.84;;;5.63;94.62
63493;BME280;49638;47.526;10.028;2022-11-18T05:13:18;90209.75;;;5.62;94.84
63493;BME280;49638;47.526;10.028;2022-11-18T05:16:19;90215.78;;;5.63;94.77
63493;BME280;49638;47.526;10.028;2022-11-18T05:19:19;90217.59;;;5.57;94.50
63493;BME280;49638;47.526;10.028;2022-11-18T05:22:19;90222.34;;;5.65;94.07
63493;BME280;49638;47.526;10.028;2022-11-18T05:25:20;90219.47;;;5.67;94.00
63493;BME280;49638;47.526;10.028;2022-11-18T05:28:20;90229.75;;;5.74;94.12
63493;BME280;49638;47.526;10.028;2022-11-18T05:31:20;90220.31;;;5.73;94.06
63493;BME280;49638;47.526;10.028;2022-11-18T05:34:21;90243.91;;;5.73;94.55
63493;BME280;49638;47.526;10.028;2022-11-18T05:37:21;90243.28;;;5.60;94.14
63493;BME280;49638;47.526;10.028;2022-11-18T05:40:22;90246.94;;;5.59;94.68
63493;BME280;49638;47.526;10.028;2022-11-18T05:43:22;90259.53;;;5.62;94.97
63493;BME280;49638;47.526;10.028;2022-11-18T05:46:22;90262.16;;;5.62;95.18
63493;BME280;49638;47.526;10.028;2022-11-18T05:49:22;90256.81;;;5.47;95.62
63493;BME280;49638;47.526;10.028;2022-11-18T05:52:23;90274.88;;;5.49;95.44
63493;BME280;49638;47.526;10.028;2022-11-18T05:55:27;90281.09;;;5.42;95.79
63493;BME280;49638;47.526;10.028;2022-11-18T05:58:29;90279.75;;;5.40;95.86
63493;BME280;49638;47.526;10.028;2022-11-18T06:01:36;90275.03;;;5.37;95.66
63493;BME280;49638;47.526;10.028;2022-11-18T06:04:44;90271.81;;;5.30;96.01
63493;BME280;49638;47.526;10.028;2022-11-18T06:07:45;90276.63;;;5.38;96.06
63493;BME280;49638;47.526;10.028;2022-11-18T06:10:47;90286.59;;;5.41;96.01
63493;BME280;49638;47.526;10.028;2022-11-18T06:14:16;90282.16;;;5.41;96.88
63493;BME280;49638;47.526;10.028;2022-11-18T06:17:21;90281.38;;;5.41;95.99
63493;BME280;49638;47.526;10.028;2022-11-18T06:20:24;90289.47;;;5.39;95.84
63493;BME280;49638;47.526;10.028;2022-11-18T06:23:27;90301.34;;;5.47;96.03
63493;BME280;49638;47.526;10.028;2022-11-18T06:26:27;90286.34;;;5.42;96.02
63493;BME280;49638;47.526;10.028;2022-11-18T06:29:29;90302.66;;;5.50;96.00
63493;BME280;49638;47.526;10.028;2022-11-18T06:32:29;90292.34;;;5.38;95.67
63493;BME280;49638;47.526;10.028;2022-11-18T06:35:30;90302.25;;;5.36;96.04
63493;BME280;49638;47.526;10.028;2022-11-18T06:38:30;90315.94;;;5.43;96.16
63493;BME280;49638;47.526;10.028;2022-11-18T06:41:31;90319.13;;;5.45;96.05
63493;BME280;49638;47.526;10.028;2022-11-18T06:44:31;90324.84;;;5.42;96.30
63493;BME280;49638;47.526;10.028;2022-11-18T06:47:32;90332.72;;;5.42;96.39
63493;BME280;49638;47.526;10.028;2022-11-18T06:50:32;90327.47;;;5.42;96.46
63493;BME280;49638;47.526;10.028;2022-11-18T06:53:33;90334.59;;;5.46;96.06
63493;BME280;49638;47.526;10.028;2022-11-18T06:56:34;90329.53;;;5.40;96.19
63493;BME280;49638;47.526;10.028;2022-11-18T06:59:35;90347.69;;;5.46;96.35
63493;BME280;49638;47.526;10.028;2022-11-18T07:02:36;90342.75;;;5.50;96.15
63493;BME280;49638;47.526;10.028;2022-11-18T07:05:36;90350.94;;;5.54;95.91
63493;BME280;49638;47.526;10.028;2022-11-18T07:08:38;90338.44;;;5.39;95.73
63493;BME280;49638;47.526;10.028;2022-11-18T07:11:39;90356.91;;;5.49;95.87
63493;BME280;49638;47.526;10.028;2022-11-18T07:14:40;90342.47;;;5.46;95.75
63493;BME280;49638;47.526;10.028;2022-11-18T07:17:40;90346.69;;;5.48;95.96
63493;BME280;49638;47.526;10.028;2022-11-18T07:20:40;90343.69;;;5.39;95.46
63493;BME280;49638;47.526;10.028;2022-11-18T07:23:41;90351.84;;;5.42;95.81
63493;BME280;49638;47.526;10.028;2022-11-18T07:26:42;90346.09;;;5.40;95.86
63493;BME280;49638;47.526;10.028;2022-11-18T07:29:42;90343.19;;;5.42;95.65
63493;BME280;49638;47.526;10.028;2022-11-18T07:32:42;90339.50;;;5.38;95.62
63493;BME280;49638;47.526;10.028;2022-11-18T07:35:43;90355.97;;;5.33;95.76
63493;BME280;49638;47.526;10.028;2022-11-18T07:38:44;90365.69;;;5.38;95.84
63493;BME280;49638;47.526;10.028;2022-11-18T07:41:44;90358.75;;;5.27;95.59
63493;BME280;49638;47.526;10.028;2022-11-18T07:44:44;90365.63;;;5.33;96.04
63493;BME280;49638;47.526;10.028;2022-11-18T07:47:45;90367.75;;;5.36;95.98
63493;BME280;49638;47.526;10.028;2022-11-18T07:50:45;90374.53;;;5.32;96.42
63493;BME280;49638;47.526;10.028;2022-11-18T07:53:45;90369.53;;;5.30;96.20
63493;BME280;49638;47.526;10.028;2022-11-18T07:56:46;90374.28;;;5.33;95.81
63493;BME280;49638;47.526;10.028;2022-11-18T07:59:46;90386.09;;;5.36;95.72
63493;BME280;49638;47.526;10.028;2022-11-18T08:02:49;90410.16;;;5.33;96.32
63493;BME280;49638;47.526;10.028;2022-11-18T08:05:50;90409.25;;;5.22;95.76
63493;BME280;49638;47.526;10.028;2022-11-18T08:08:51;90419.41;;;5.18;96.06
63493;BME280;49638;47.526;10.028;2022-11-18T08:11:51;90435.06;;;5.13;95.97
63493;BME280;49638;47.526;10.028;2022-11-18T08:14:51;90437.25;;;5.00;95.71
63493;BME280;49638;47.526;10.028;2022-11-18T08:17:52;90434.38;;;5.01;96.38
63493;BME280;49638;47.526;10.028;2022-11-18T08:20:52;90438.50;;;4.97;96.12
63493;BME280;49638;47.526;10.028;2022-11-18T08:23:54;90445.16;;;5.05;96.03
63493;BME280;49638;47.526;10.028;2022-11-18T08:26:55;90435.81;;;4.92;96.27
63493;BME280;49638;47.526;10.028;2022-11-18T08:29:55;90440.25;;;4.91;96.40
63493;BME280;49638;47.526;10.028;2022-11-18T08:32:56;90449.78;;;4.97;96.14
63493;BME280;49638;47.526;10.028;2022-11-18T08:35:56;90447.94;;;4.98;96.06
63493;BME280;49638;47.526;10.028;2022-11-18T08:38:58;90443.66;;;4.92;96.11
63493;BME280;49638;47.526;10.028;2022-11-18T08:41:59;90444.13;;;4.89;95.92
63493;BME280;49638;47.526;10.028;2022-11-18T08:44:59;90457.88;;;4.79;96.26
63493;BME280;49638;47.526;10.028;2022-11-18T08:48:00;90472.56;;;4.80;96.14
63493;BME280;49638;47.526;10.028;2022-11-18T08:51:00;90456.53;;;4.77;96.32
63493;BME280;49638;47.526;10.028;2022-11-18T08:54:01;90473.91;;;4.83;96.39
63493;BME280;49638;47.526;10.028;2022-11-18T08:57:01;90470.41;;;4.77;96.89
63493;BME280;49638;47.526;10.028;2022-11-18T09:00:03;90472.09;;;4.83;96.93
63493;BME280;49638;47.526;10.028;2022-11-18T09:03:03;90477.53;;;4.82;96.97
63493;BME280;49638;47.526;10.028;2022-11-18T09:06:15;90481.50;;;4.84;97.03
63493;BME280;49638;47.526;10.028;2022-11-18T09:09:15;90470.16;;;4.79;96.85
63493;BME280;49638;47.526;10.028;2022-11-18T09:12:16;90471.44;;;4.93;96.71
63493;BME280;49638;47.526;10.028;2022-11-18T09:15:16;90481.34;;;4.91;96.54
63493;BME280;49638;47.526;10.028;2022-11-18T09:18:16;90471.97;;;4.95;95.88
63493;BME280;49638;47.526;10.028;2022-11-18T09:21:17;90475.69;;;4.99;96.53
63493;BME280;49638;47.526;10.028;2022-11-18T09:24:18;90474.91;;;4.98;96.27
63493;BME280;49638;47.526;10.028;2022-11-18T09:27:18;90481.44;;;4.96;96.92
63493;BME280;49638;47.526;10.028;2022-11-18T09:30:18;90481.34;;;4.91;96.70
63493;BME280;49638;47.526;10.028;2022-11-18T09:33:19;90487.38;;;4.91;96.74
63493;BME280;49638;47.526;10.028;2022-11-18T09:36:21;90490.63;;;4.98;96.99
63493;BME280;49638;47.526;10.028;2022-11-18T09:39:23;90501.41;;;5.02;96.74
63493;BME280;49638;47.526;10.028;2022-11-18T09:45:50;90495.16;;;5.03;97.20
63493;BME280;49638;47.526;10.028;2022-11-18T09:48:56;90499.56;;;5.03;97.02
63493;BME280;49638;47.526;10.028;2022-11-18T09:52:17;90507.28;;;5.09;96.78
63493;BME280;49638;47.526;10.028;2022-11-18T09:55:19;90512.59;;;5.14;96.92
63493;BME280;49638;47.526;10.028;2022-11-18T09:58:31;90499.41;;;5.09;97.26
63493;BME280;49638;47.526;10.028;2022-11-18T10:01:34;90500.41;;;5.03;96.88
63493;BME280;49638;47.526;10.028;2022-11-18T10:04:36;90507.03;;;5.11;96.73
63493;BME280;49638;47.526;10.028;2022-11-18T10:08:04;90500.28;;;5.15;96.45
63493;BME280;49638;47.526;10.028;2022-11-18T10:11:15;90519.97;;;5.17;96.66
63493;BME280;49638;47.526;10.028;2022-11-18T10:14:26;90502.84;;;5.10;96.29
63493;BME280;49638;47.526;10.028;2022-11-18T10:20:59;90507.03;;;5.11;96.18
63493;BME280;49638;47.526;10.028;2022-11-18T10:24:23;90485.00;;;5.07;96.56
63493;BME280;49638;47.526;10.028;2022-11-18T10:27:32;90507.69;;;5.01;96.18
63493;BME280;49638;47.526;10.028;2022-11-18T10:30:33;90527.69;;;5.07;96.40
63493;BME280;49638;47.526;10.028;2022-11-18T10:33:34;90511.97;;;4.90;96.11
63493;BME280;49638;47.526;10.028;2022-11-18T10:36:35;90512.75;;;4.91;96.24
63493;BME280;49638;47.526;10.028;2022-11-18T10:39:49;90522.03;;;4.98;96.83
63493;BME280;49638;47.526;10.028;2022-11-18T10:42:50;90505.47;;;4.93;96.33
63493;BME280;49638;47.526;10.028;2022-11-18T10:45:50;90495.78;;;4.93;95.79
63493;BME280;49638;47.526;10.028;2022-11-18T10:52:11;90498.16;;;4.95;96.59
63493;BME280;49638;47.526;10.028;2022-11-18T10:55:22;90511.41;;;5.05;97.29
63493;BME280;49638;47.526;10.028;2022-11-18T10:58:24;90516.31;;;5.02;96.67
63493;BME280;49638;47.526;10.028;2022-11-18T11:01:25;90512.84;;;4.96;97.31
63493;BME280;49638;47.526;10.028;2022-11-18T11:04:26;90510.16;;;4.91;96.99
63493;BME280;49638;47.526;10.028;2022-11-18T11:10:32;90510.16;;;4.91;97.20
63493;BME280;49638;47.526;10.028;2022-11-18T11:13:37;90517.59;;;4.99;97.71
63493;BME280;49638;47.526;10.028;2022-11-18T11:20:27;90525.44;;;4.99;97.42
63493;BME280;49638;47.526;10.028;2022-11-18T11:23:29;90521.34;;;5.03;97.42
63493;BME280;49638;47.526;10.028;2022-11-18T11:26:48;90521.97;;;4.93;97.54
63493;BME280;49638;47.526;10.028;2022-11-18T11:39:44;90517.44;;;4.89;97.43
63493;BME280;49638;47.526;10.028;2022-11-18T11:43:18;90530.38;;;4.95;97.81
63493;BME280;49638;47.526;10.028;2022-11-18T11:46:27;90538.00;;;4.97;96.90
63493;BME280;49638;47.526;10.028;2022-11-18T11:50:05;90532.34;;;4.88;97.87
63493;BME280;49638;47.526;10.028;2022-11-18T11:53:19;90534.97;;;4.88;97.21
63493;BME280;49638;47.526;10.028;2022-11-18T11:56:33;90553.72;;;4.97;97.47
63493;BME280;49638;47.526;10.028;2022-11-18T11:59:57;90535.91;;;4.99;97.63
63493;BME280;49638;47.526;10.028;2022-11-18T12:03:14;90522.59;;;5.01;97.21
63493;BME280;49638;47.526;10.028;2022-11-18T12:06:21;90538.84;;;5.03;96.87
63493;BME280;49638;47.526;10.028;2022-11-18T12:09:34;90541.25;;;5.04;97.39
63493;BME280;49638;47.526;10.028;2022-11-18T12:19:16;90540.31;;;5.10;97.14
63493;BME280;49638;47.526;10.028;2022-11-18T12:22:18;90541.25;;;5.21;96.93
63493;BME280;49638;47.526;10.028;2022-11-18T12:32:30;90561.72;;;5.41;96.51
63493;BME280;49638;47.526;10.028;2022-11-18T12:35:31;90549.00;;;5.33;96.22
63493;BME280;49638;47.526;10.028;2022-11-18T12:38:32;90547.84;;;5.24;96.15
63493;BME280;49638;47.526;10.028;2022-11-18T12:48:38;90571.47;;;5.12;96.59
63493;BME280;49638;47.526;10.028;2022-11-18T12:51:40;90571.25;;;5.13;97.03
63493;BME280;49638;47.526;10.028;2022-11-18T12:54:45;90573.06;;;5.13;97.00
63493;BME280;49638;47.526;10.028;2022-11-18T12:57:47;90553.94;;;5.12;97.06
63493;BME280;49638;47.526;10.028;2022-11-18T13:00:47;90555.69;;;5.24;96.37
63493;BME280;49638;47.526;10.028;2022-11-18T13:04:08;90537.53;;;5.17;96.32
63493;BME280;49638;47.526;10.028;2022-11-18T13:07:12;90532.03;;;5.18;96.23
63493;BME280;49638;47.526;10.028;2022-11-18T13:10:34;90530.75;;;5.21;96.17
63493;BME280;49638;47.526;10.028;2022-11-18T13:13:37;90543.75;;;5.33;96.47
63493;BME280;49638;47.526;10.028;2022-11-18T13:16:39;90546.69;;;5.36;96.62
63493;BME280;49638;47.526;10.028;2022-11-18T13:19:57;90552.59;;;5.27;97.14
63493;BME280;49638;47.526;10.028;2022-11-18T13:26:27;90577.13;;;5.20;96.88
63493;BME280;49638;47.526;10.028;2022-11-18T13:32:31;90582.19;;;5.10;97.73
63493;BME280;49638;47.526;10.028;2022-11-18T13:35:31;90575.13;;;5.11;96.45
63493;BME280;49638;47.526;10.028;2022-11-18T13:38:32;90574.03;;;5.07;96.52
63493;BME280;49638;47.526;10.028;2022-11-18T13:41:34;90558.84;;;4.92;96.67
63493;BME280;49638;47.526;10.028;2022-11-18T13:44:36;90565.59;;;5.05;96.63
63493;BME280;49638;47.526;10.028;2022-11-18T13:48:00;90577.50;;;5.12;97.13
63493;BME280;49638;47.526;10.028;2022-11-18T13:51:04;90583.31;;;5.14;96.21
63493;BME280;49638;47.526;10.028;2022-11-18T13:54:06;90583.06;;;5.16;96.56
63493;BME280;49638;47.526;10.028;2022-11-18T13:57:15;90587.97;;;5.12;96.80
63493;BME280;49638;47.526;10.028;2022-11-18T14:00:22;90584.97;;;5.04;97.44
63493;BME280;49638;47.526;10.028;2022-11-18T14:03:26;90588.13;;;5.06;96.58
63493;BME280;49638;47.526;10.028;2022-11-18T14:09:30;90587.03;;;5.02;96.79
63493;BME280;49638;47.526;10.028;2022-11-18T14:12:32;90585.13;;;4.97;97.33
63493;BME280;49638;47.526;10.028;2022-11-18T14:15:34;90585.59;;;4.94;97.33
63493;BME280;49638;47.526;10.028;2022-11-18T14:18:37;90594.09;;;5.01;97.21
63493;BME280;49638;47.526;10.028;2022-11-18T14:21:44;90587.50;;;4.98;97.35
63493;BME280;49638;47.526;10.028;2022-11-18T14:24:53;90595.44;;;5.04;97.80
63493;BME280;49638;47.526;10.028;2022-11-18T14:27:56;90595.19;;;5.05;97.58
63493;BME280;49638;47.526;10.028;2022-11-18T14:34:19;90599.19;;;5.08;98.30
63493;BME280;49638;47.526;10.028;2022-11-18T14:37:20;90589.09;;;5.00;97.25
63493;BME280;49638;47.526;10.028;2022-11-18T14:40:20;90612.75;;;5.05;97.50
63493;BME280;49638;47.526;10.028;2022-11-18T14:43:21;90602.88;;;4.95;97.65
63493;BME280;49638;47.526;10.028;2022-11-18T14:46:21;90613.22;;;5.02;97.35
63493;BME280;49638;47.526;10.028;2022-11-18T14:49:24;90611.47;;;5.07;97.27
63493;BME280;49638;47.526;10.028;2022-11-18T14:52:25;90621.50;;;5.10;97.12
63493;BME280;49638;47.526;10.028;2022-11-18T14:55:25;90615.13;;;5.06;97.24
63493;BME280;49638;47.526;10.028;2022-11-18T14:58:26;90618.63;;;5.12;96.92
63493;BME280;49638;47.526;10.028;2022-11-18T15:01:26;90623.63;;;5.13;97.14
63493;BME280;49638;47.526;10.028;2022-11-18T15:04:29;90611.00;;;5.10;96.64
63493;BME280;49638;47.526;10.028;2022-11-18T15:07:29;90615.47;;;5.10;97.25
63493;BME280;49638;47.526;10.028;2022-11-18T15:10:30;90618.88;;;5.10;97.05
63493;BME280;49638;47.526;10.028;2022-11-18T15:13:30;90610.69;;;5.07;97.04
63493;BME280;49638;47.526;10.028;2022-11-18T15:16:31;90617.50;;;5.08;97.35
63493;BME280;49638;47.526;10.028;2022-11-18T15:19:32;90614.47;;;4.99;97.34
63493;BME280;49638;47.526;10.028;2022-11-18T15:22:32;90604.81;;;5.00;97.09
63493;BME280;49638;47.526;10.028;2022-11-18T15:25:33;90619.88;;;5.09;96.68
63493;BME280;49638;47.526;10.028;2022-11-18T15:28:33;90619.66;;;5.11;96.94
63493;BME280;49638;47.526;10.028;2022-11-18T15:31:34;90614.00;;;5.02;96.81
63493;BME280;49638;47.526;10.028;2022-11-18T15:34:34;90626.41;;;5.07;97.08
63493;BME280;49638;47.526;10.028;2022-11-18T15:37:34;90632.97;;;5.09;97.06
63493;BME280;49638;47.526;10.028;2022-11-18T15:40:35;90640.81;;;5.09;97.41
63493;BME280;49638;47.526;10.028;2022-11-18T15:43:35;90624.72;;;5.01;97.57
63493;BME280;49638;47.526;10.028;2022-11-18T15:46:36;90637.81;;;5.01;97.61
63493;BME280;49638;47.526;10.028;2022-11-18T15:49:36;90637.34;;;5.04;97.29
63493;BME280;49638;47.526;10.028;2022-11-18T15:52:41;90631.47;;;4.96;97.69
63493;BME280;49638;47.526;10.028;2022-11-18T15:55:42;90643.28;;;4.99;97.40
63493;BME280;49638;47.526;10.028;2022-11-18T15:58:42;90625.03;;;4.87;97.67
63493;BME280;49638;47.526;10.028;2022-11-18T16:01:44;90649.56;;;4.98;97.82
63493;BME280;49638;47.526;10.028;2022-11-18T16:04:45;90648.44;;;4.94;97.74
63493;BME280;49638;47.526;10.028;2022-11-18T16:07:46;90660.75;;;4.93;97.66
63493;BME280;49638;47.526;10.028;2022-11-18T16:10:46;90652.84;;;4.77;98.06
63493;BME280;49638;47.526;10.028;2022-11-18T16:14:10;90664.44;;;4.81;98.15
63493;BME280;49638;47.526;10.028;2022-11-18T16:17:10;90651.41;;;4.69;97.44
63493;BME280;49638;47.526;10.028;2022-11-18T16:20:11;90677.56;;;4.69;97.59
63493;BME280;49638;47.526;10.028;2022-11-18T16:23:11;90677.56;;;4.69;97.04
63493;BME280;49638;47.526;10.028;2022-11-18T16:26:12;90676.44;;;4.65;97.41
63493;BME280;49638;47.526;10.028;2022-11-18T16:29:12;90673.03;;;4.64;97.58
63493;BME280;49638;47.526;10.028;2022-11-18T16:32:14;90680.31;;;4.62;97.21
63493;BME280;49638;47.526;10.028;2022-11-18T16:35:15;90693.28;;;4.69;97.34
63493;BME280;49638;47.526;10.028;2022-11-18T16:38:15;90686.69;;;4.66;97.08
63493;BME280;49638;47.526;10.028;2022-11-18T16:41:15;90689.38;;;4.71;96.98
63493;BME280;49638;47.526;10.028;2022-11-18T16:44:30;90687.09;;;4.75;96.87
63493;BME280;49638;47.526;10.028;2022-11-18T16:47:31;90679.03;;;4.77;96.79
63493;BME280;49638;47.526;10.028;2022-11-18T16:50:31;90676.75;;;4.68;96.26
63493;BME280;49638;47.526;10.028;2022-11-18T16:53:31;90689.38;;;4.71;97.14
63493;BME280;49638;47.526;10.028;2022-11-18T16:56:33;90684.38;;;4.70;96.77
63493;BME280;49638;47.526;10.028;2022-11-18T16:59:34;90682.69;;;4.64;96.82
63493;BME280;49638;47.526;10.028;2022-11-18T17:02:34;90686.53;;;4.73;96.86
63493;BME280;49638;47.526;10.028;2022-11-18T17:05:34;90697.56;;;4.75;96.09
63493;BME280;49638;47.526;10.028;2022-11-18T17:08:35;90690.09;;;4.67;96.70
63493;BME280;49638;47.526;10.028;2022-11-18T17:11:36;90687.78;;;4.70;96.65
63493;BME280;49638;47.526;10.028;2022-11-18T17:14:36;90686.22;;;4.69;96.88
63493;BME280;49638;47.526;10.028;2022-11-18T17:17:37;90687.72;;;4.65;96.64
63493;BME280;49638;47.526;10.028;2022-11-18T17:20:37;90706.91;;;4.71;96.90
63493;BME280;49638;47.526;10.028;2022-11-18T17:23:39;90706.91;;;4.71;96.93